Time;durP1;ratioP1;P1;durP2;ratioP2;P2;SDS_P1;SDS_P2;PMS_P1;PMS_P2;Temp;Humidity;BMP_temperature;BMP_pressure;BME280_temperature;BME280_humidity;BME280_pressure;Samples;Min_cycle;Max_cycle;Signal;HPM_P1;HPM_P2
2021/11/27 07:02:17;;;;;;;21.92;7.43;;;;;;;1.16;82.90;95533.72;4899258;23;19924;-48
2021/11/27 07:04:42;;;;;;;23.52;8.65;;;;;;;1.31;82.07;95530.97;4853037;29;20390;-48
2021/11/27 07:07:08;;;;;;;24.55;9.82;;;;;;;1.35;82.12;95540.13;4851512;29;20096;-50
2021/11/27 07:09:34;;;;;;;26.80;9.05;;;;;;;1.46;82.13;95539.34;4858244;29;20401;-47
2021/11/27 07:11:59;;;;;;;22.15;8.93;;;;;;;1.55;81.54;95539.47;4860090;29;20029;-48
2021/11/27 07:14:25;;;;;;;28.27;10.20;;;;;;;1.56;81.50;95545.47;4860148;29;20025;-48
2021/11/27 07:16:50;;;;;;;25.23;10.57;;;;;;;1.56;81.78;95543.69;4856530;29;20017;-47
2021/11/27 07:19:15;;;;;;;27.42;11.20;;;;;;;1.35;81.93;95546.13;4852551;29;20029;-50
2021/11/27 07:21:41;;;;;;;26.88;10.00;;;;;;;1.18;83.17;95556.88;4854588;29;20028;-50
2021/11/27 07:24:06;;;;;;;25.70;9.70;;;;;;;1.32;82.73;95558.44;4858297;29;20021;-51
2021/11/27 07:26:32;;;;;;;23.23;9.60;;;;;;;1.46;82.18;95563.41;4849538;29;20030;-47
2021/11/27 07:28:58;;;;;;;26.15;10.02;;;;;;;1.58;81.74;95559.91;4847745;29;20371;-49
2021/11/27 07:31:24;;;;;;;26.65;10.57;;;;;;;1.59;81.75;95563.31;4863978;29;20037;-52
2021/11/27 07:33:50;;;;;;;27.83;10.27;;;;;;;1.62;81.77;95563.91;4849794;29;20034;-50
2021/11/27 07:36:15;;;;;;;27.55;10.68;;;;;;;1.80;80.90;95569.44;4855404;29;20510;-45
2021/11/27 07:38:40;;;;;;;25.67;9.82;;;;;;;1.74;81.49;95574.25;4845703;29;20065;-47
2021/11/27 07:41:06;;;;;;;25.70;9.35;;;;;;;1.88;81.27;95571.44;4853718;29;20089;-51
2021/11/27 07:43:33;;;;;;;24.73;9.50;;;;;;;1.89;80.92;95567.91;4847539;29;20490;-47
2021/11/27 07:45:58;;;;;;;24.17;8.73;;;;;;;1.87;81.01;95568.06;4850917;29;20037;-47
2021/11/27 07:48:24;;;;;;;26.55;9.60;;;;;;;1.96;80.89;95563.97;4856060;29;20029;-47
2021/11/27 07:50:49;;;;;;;22.75;8.93;;;;;;;1.86;81.11;95563.00;4868711;29;20029;-50
2021/11/27 07:53:15;;;;;;;25.48;9.88;;;;;;;1.80;81.33;95568.63;4847848;29;20049;-48
2021/11/27 07:55:40;;;;;;;26.67;9.85;;;;;;;1.77;81.17;95553.34;4850339;29;20044;-48
2021/11/27 07:58:06;;;;;;;24.05;9.20;;;;;;;2.03;80.50;95578.06;4850655;29;20498;-48
2021/11/27 08:00:31;;;;;;;19.40;8.80;;;;;;;1.86;81.38;95579.34;4850695;29;20029;-48
2021/11/27 08:02:56;;;;;;;26.50;9.50;;;;;;;1.81;81.52;95575.44;4849211;29;20034;-50
2021/11/27 08:05:22;;;;;;;28.77;8.85;;;;;;;1.84;81.38;95576.03;4850392;29;20038;-51
2021/11/27 08:07:47;;;;;;;22.13;9.07;;;;;;;2.07;81.13;95570.88;4857021;29;20045;-48
2021/11/27 08:10:13;;;;;;;23.25;9.88;;;;;;;2.18;80.49;95572.66;4847768;29;20112;-49
2021/11/27 08:12:39;;;;;;;21.98;8.65;;;;;;;2.34;79.92;95567.91;4856551;29;20072;-48
2021/11/27 08:15:05;;;;;;;22.42;9.25;;;;;;;2.34;79.79;95560.16;4861064;29;20033;-51
2021/11/27 08:17:30;;;;;;;22.58;9.32;;;;;;;2.42;80.21;95575.94;4854435;29;20025;-48
2021/11/27 08:19:56;;;;;;;23.48;9.73;;;;;;;2.49;79.57;95584.03;4855618;29;20045;-48
2021/11/27 08:22:21;;;;;;;24.63;9.45;;;;;;;2.67;78.89;95597.28;4861697;29;20029;-49
2021/11/27 08:24:48;;;;;;;22.63;8.95;;;;;;;2.54;78.74;95605.19;4860429;29;20109;-49
2021/11/27 08:27:14;;;;;;;22.27;8.70;;;;;;;2.45;80.19;95598.97;4855275;29;20025;-48
2021/11/27 08:29:39;;;;;;;20.08;7.88;;;;;;;2.34;80.42;95609.31;4857256;29;20040;-50
2021/11/27 08:32:05;;;;;;;24.23;9.20;;;;;;;2.44;80.04;95614.59;4851357;29;20038;-51
2021/11/27 08:34:30;;;;;;;26.77;8.63;;;;;;;2.24;80.96;95613.56;4857201;29;20398;-50
2021/11/27 08:36:56;;;;;;;21.83;8.27;;;;;;;2.31;80.08;95605.22;4859669;29;20029;-50
2021/11/27 08:39:21;;;;;;;22.15;8.02;;;;;;;2.31;79.82;95625.91;4859825;29;20041;-50
2021/11/27 08:41:47;;;;;;;19.38;8.40;;;;;;;2.38;79.62;95615.91;4854057;29;20025;-53
2021/11/27 08:44:12;;;;;;;21.70;8.20;;;;;;;2.45;79.32;95611.09;4853300;29;20037;-50
2021/11/27 08:46:38;;;;;;;20.08;7.75;;;;;;;2.71;78.67;95609.03;4861478;29;20033;-50
2021/11/27 08:49:04;;;;;;;18.33;7.15;;;;;;;2.71;78.69;95596.09;4860010;29;20124;-51
2021/11/27 08:51:29;;;;;;;20.08;6.97;;;;;;;2.71;78.71;95606.47;4861384;29;20037;-49
2021/11/27 08:53:55;;;;;;;19.98;7.35;;;;;;;2.78;78.08;95598.09;4861188;29;20029;-52
2021/11/27 08:56:20;;;;;;;19.20;8.02;;;;;;;2.87;77.90;95611.25;4853774;29;20034;-53
2021/11/27 08:58:46;;;;;;;16.23;6.53;;;;;;;2.77;77.93;95605.97;4861466;29;20665;-50
2021/11/27 09:01:12;;;;;;;18.83;7.30;;;;;;;2.95;77.86;95609.69;4852425;29;20029;-52
2021/11/27 09:03:38;;;;;;;17.27;6.88;;;;;;;2.97;77.74;95605.22;4860352;29;20457;-56
2021/11/27 09:06:03;;;;;;;19.42;7.80;;;;;;;2.99;76.47;95608.50;4861463;29;20034;-50
2021/11/27 09:08:29;;;;;;;19.13;7.53;;;;;;;2.81;78.51;95610.78;4856638;29;20038;-50
2021/11/27 09:10:54;;;;;;;18.20;7.50;;;;;;;2.79;78.38;95614.47;4853443;29;20030;-50
2021/11/27 09:13:19;;;;;;;22.55;8.15;;;;;;;2.93;78.05;95615.97;4860962;29;20512;-53
2021/11/27 09:15:45;;;;;;;20.70;8.18;;;;;;;2.87;77.26;95616.44;4853544;29;20030;-50
2021/11/27 09:18:11;;;;;;;20.77;8.27;;;;;;;3.20;76.48;95629.31;4858271;29;20029;-51
2021/11/27 09:20:37;;;;;;;20.98;8.48;;;;;;;3.23;76.95;95634.22;4849606;29;20550;-50
2021/11/27 09:23:02;;;;;;;19.92;7.80;;;;;;;3.20;76.98;95628.47;4873026;29;20046;-50
2021/11/27 09:25:29;;;;;;;23.88;8.57;;;;;;;3.33;76.01;95639.47;4850994;29;20029;-49
2021/11/27 09:27:55;;;;;;;16.80;7.20;;;;;;;3.31;76.91;95637.03;4855989;29;20029;-53
2021/11/27 09:30:20;;;;;;;19.67;7.28;;;;;;;3.27;77.03;95650.38;4858320;29;20381;-51
2021/11/27 09:32:45;;;;;;;19.25;7.45;;;;;;;3.24;76.17;95656.59;4857575;29;20061;-46
2021/11/27 09:35:11;;;;;;;23.42;7.95;;;;;;;3.34;75.13;95656.69;4851825;29;20084;-51
2021/11/27 09:37:37;;;;;;;18.42;7.90;;;;;;;3.36;74.65;95654.78;4849822;29;20053;-50
2021/11/27 09:40:06;;;;;;;19.92;7.35;;;;;;;3.44;75.07;95660.19;4861558;29;20033;-47
2021/11/27 09:42:33;;;;;;;16.88;6.93;;;;;;;3.60;75.26;95658.94;4868682;29;20478;-48
2021/11/27 09:44:58;;;;;;;22.17;7.63;;;;;;;3.51;73.81;95663.09;4871337;29;20037;-51
2021/11/27 09:47:24;;;;;;;18.75;7.72;;;;;;;3.62;75.47;95655.28;4875443;29;20033;-51
2021/11/27 09:49:49;;;;;;;21.27;8.02;;;;;;;4.05;74.78;95655.16;4841001;29;20052;-50
2021/11/27 09:52:15;;;;;;;20.58;8.05;;;;;;;3.91;74.33;95658.06;4850597;29;20081;-51
2021/11/27 09:54:40;;;;;;;21.63;8.75;;;;;;;3.64;73.72;95662.94;4855513;29;20108;-49
2021/11/27 09:57:09;;;;;;;21.05;8.15;;;;;;;3.77;74.27;95668.75;4858635;29;20486;-53
2021/11/27 09:59:35;;;;;;;21.63;8.50;;;;;;;3.83;74.80;95667.44;4860200;29;20116;-50
2021/11/27 10:02:01;;;;;;;21.17;8.77;;;;;;;3.76;74.92;95662.75;4853541;29;20030;-50
2021/11/27 10:04:27;;;;;;;19.58;7.65;;;;;;;3.81;73.47;95663.19;4874733;29;20033;-49
2021/11/27 10:06:53;;;;;;;20.88;7.78;;;;;;;3.83;74.07;95655.31;4858734;29;20482;-49
2021/11/27 10:09:19;;;;;;;20.80;7.47;;;;;;;3.68;74.27;95659.13;4841034;29;20074;-48
2021/11/27 10:11:46;;;;;;;19.38;7.90;;;;;;;3.47;75.25;95646.97;4850619;29;20038;-52
2021/11/27 10:14:12;;;;;;;20.67;8.35;;;;;;;3.71;75.03;95658.88;4857252;29;20417;-48
2021/11/27 10:17:03;;;;;;;19.45;7.22;;;;;;;3.76;73.41;95656.75;4853869;29;20548;-49
2021/11/27 10:19:43;;;;;;;20.13;7.88;;;;;;;3.54;74.23;95653.31;4851142;29;20090;-48
2021/11/27 10:22:23;;;;;;;20.67;7.43;;;;;;;3.63;74.19;95661.28;4856911;29;20076;-50
2021/11/27 10:24:50;;;;;;;19.60;7.43;;;;;;;3.78;73.02;95665.22;4873190;29;20302;-51
2021/11/27 10:27:28;;;;;;;19.83;7.30;;;;;;;3.76;73.53;95651.56;4850463;29;20495;-51
2021/11/27 10:30:07;;;;;;;21.75;8.63;;;;;;;4.15;72.31;95659.59;4873764;29;20041;-52
2021/11/27 10:32:37;;;;;;;17.50;7.63;;;;;;;4.16;72.33;95658.63;4853618;29;20030;-52
2021/11/27 10:35:04;;;;;;;19.77;8.88;;;;;;;3.89;73.10;95667.78;4849276;29;20075;-51
2021/11/27 10:37:31;;;;;;;20.73;7.78;;;;;;;3.77;73.34;95672.19;4858759;29;20034;-53
2021/11/27 10:40:01;;;;;;;14.98;6.60;;;;;;;4.04;72.53;95671.69;4858476;29;20041;-53
2021/11/27 10:42:27;;;;;;;16.27;6.45;;;;;;;4.11;71.57;95672.00;4850723;29;20128;-48
2021/11/27 10:44:53;;;;;;;16.23;6.47;;;;;;;4.07;71.38;95677.59;4853208;29;20472;-49
2021/11/27 10:47:18;;;;;;;16.05;5.95;;;;;;;4.22;70.97;95689.28;4855578;29;20029;-50
2021/11/27 10:49:45;;;;;;;16.42;6.53;;;;;;;4.19;71.92;95679.97;4851875;29;20405;-49
2021/11/27 10:52:14;;;;;;;18.30;7.00;;;;;;;4.27;70.63;95668.97;4849252;29;20450;-49
2021/11/27 10:54:52;;;;;;;14.48;6.10;;;;;;;4.38;70.26;95674.06;4852348;29;20030;-53
2021/11/27 10:57:41;;;;;;;18.77;7.05;;;;;;;4.61;70.63;95669.53;4849063;29;20033;-53
2021/11/27 11:00:26;;;;;;;16.05;6.05;;;;;;;4.75;70.22;95666.59;4850791;29;20116;-51
2021/11/27 11:02:52;;;;;;;19.38;6.43;;;;;;;4.86;69.51;95657.88;4855374;29;20108;-50
2021/11/27 11:05:19;;;;;;;12.20;5.15;;;;;;;4.89;68.17;95655.00;4857102;29;20035;-52
2021/11/27 11:07:55;;;;;;;14.13;5.43;;;;;;;4.98;67.59;95646.41;4854694;29;20041;-52
2021/11/27 11:10:22;;;;;;;15.55;5.75;;;;;;;5.04;67.65;95650.25;4849301;29;20089;-50
2021/11/27 11:12:57;;;;;;;11.63;4.63;;;;;;;5.20;65.69;95652.34;4848524;29;20040;-52
2021/11/27 11:15:31;;;;;;;14.32;5.25;;;;;;;5.05;65.25;95651.91;4857498;29;20041;-52
2021/11/27 11:18:12;;;;;;;13.00;5.07;;;;;;;4.88;66.97;95655.13;4859000;29;20762;-52
2021/11/27 11:20:50;;;;;;;14.45;5.07;;;;;;;4.86;68.67;95657.06;4854455;29;20041;-52
2021/11/27 11:23:28;;;;;;;12.65;4.32;;;;;;;4.67;67.09;95661.22;4851441;29;20037;-54
2021/11/27 11:25:56;;;;;;;16.92;5.43;;;;;;;4.73;68.28;95658.09;4850951;29;20050;-50
2021/11/27 11:28:22;;;;;;;15.40;6.05;;;;;;;4.59;69.81;95661.06;4851890;29;20030;-52
2021/11/27 11:30:49;;;;;;;15.20;5.85;;;;;;;4.69;68.66;95666.28;4850049;29;20081;-52
2021/11/27 11:33:15;;;;;;;14.52;5.60;;;;;;;4.47;69.53;95668.13;4858340;29;20037;-49
2021/11/27 11:35:41;;;;;;;15.93;6.00;;;;;;;4.59;68.97;95660.22;4854376;29;20035;-48
2021/11/27 11:38:11;;;;;;;17.40;6.55;;;;;;;4.75;69.70;95647.59;4859099;29;20030;-48
2021/11/27 11:40:38;;;;;;;16.10;6.53;;;;;;;4.68;69.54;95657.69;4851265;29;20045;-52
2021/11/27 11:43:03;;;;;;;13.48;5.25;;;;;;;5.03;68.44;95643.44;4857178;29;20025;-52
2021/11/27 11:45:29;;;;;;;16.13;6.03;;;;;;;5.32;67.45;95651.25;4843513;29;20037;-53
2021/11/27 11:47:54;;;;;;;15.23;6.07;;;;;;;5.72;66.44;95650.34;4850531;29;20045;-53
2021/11/27 11:50:21;;;;;;;11.00;4.70;;;;;;;5.94;66.33;95644.84;4855747;29;20094;-54
2021/11/27 11:53:08;;;;;;;13.57;5.10;;;;;;;5.68;65.61;95646.38;4866835;29;20040;-50
2021/11/27 11:55:34;;;;;;;14.68;5.43;;;;;;;5.72;65.72;95639.94;4868435;29;20404;-53
2021/11/27 11:58:01;;;;;;;13.60;5.20;;;;;;;5.81;66.34;95639.09;4856875;29;20041;-53
2021/11/27 12:00:32;;;;;;;15.38;5.70;;;;;;;5.55;65.47;95643.22;4847852;29;20491;-51
2021/11/27 12:03:08;;;;;;;13.35;5.15;;;;;;;5.56;65.48;95640.47;4868744;29;20077;-48
2021/11/27 12:05:36;;;;;;;13.63;5.10;;;;;;;5.33;66.69;95655.50;4856589;29;20041;-50
2021/11/27 12:08:04;;;;;;;13.60;5.38;;;;;;;5.45;65.45;95658.81;4857895;29;20060;-51
2021/11/27 12:10:30;;;;;;;13.82;5.20;;;;;;;5.50;65.25;95655.78;4847545;29;20407;-49
2021/11/27 12:13:05;;;;;;;14.30;5.35;;;;;;;5.28;67.17;95665.50;4850084;29;20030;-51
2021/11/27 12:15:37;;;;;;;14.43;5.38;;;;;;;4.81;67.06;95680.00;4844768;29;20034;-49
2021/11/27 12:18:10;;;;;;;14.25;5.28;;;;;;;4.72;68.37;95679.00;4856644;29;20044;-52
2021/11/27 12:20:49;;;;;;;20.85;5.78;;;;;;;4.45;69.12;95692.56;4850960;29;20048;-54
2021/11/27 12:23:34;;;;;;;17.08;5.88;;;;;;;4.70;68.13;95697.31;4857259;29;20033;-54
2021/11/27 12:26:06;;;;;;;15.93;5.80;;;;;;;4.49;68.64;95691.34;4849362;29;20041;-48
2021/11/27 12:28:31;;;;;;;18.38;6.50;;;;;;;4.73;68.10;95701.44;4843120;29;20037;-51
2021/11/27 12:30:57;;;;;;;14.50;5.38;;;;;;;4.59;68.82;95689.59;4854868;29;20454;-47
2021/11/27 12:33:49;;;;;;;16.80;6.55;;;;;;;4.60;68.99;95699.03;4854841;29;20033;-47
2021/11/27 12:36:26;;;;;;;16.27;6.18;;;;;;;4.75;68.50;95707.31;4844770;29;20044;-48
2021/11/27 12:39:03;;;;;;;15.60;5.35;;;;;;;4.82;68.02;95700.66;4841078;29;20082;-47
2021/11/27 12:41:36;;;;;;;15.70;6.70;;;;;;;4.79;68.75;95705.28;4844379;29;20129;-47
2021/11/27 12:44:14;;;;;;;17.52;5.78;;;;;;;4.82;68.10;95703.25;4859095;29;20572;-50
2021/11/27 12:46:45;;;;;;;14.00;5.93;;;;;;;4.72;68.09;95698.00;4847279;29;20514;-48
2021/11/27 12:49:31;;;;;;;14.83;5.57;;;;;;;4.94;67.55;95697.00;4840712;29;20026;-51
2021/11/27 12:52:15;;;;;;;13.75;5.35;;;;;;;5.06;67.52;95705.53;4841570;29;20312;-48
2021/11/27 12:54:40;;;;;;;15.60;6.25;;;;;;;5.33;67.21;95697.09;4840503;29;20026;-45
2021/11/27 12:57:06;;;;;;;12.23;5.10;;;;;;;5.44;66.96;95698.78;4852033;29;20037;-49
2021/11/27 12:59:31;;;;;;;11.68;5.40;;;;;;;5.54;67.33;95706.56;4847762;29;20028;-51
2021/11/27 13:01:57;;;;;;;16.80;5.80;;;;;;;5.54;66.21;95699.59;4855055;29;20037;-47
2021/11/27 13:04:23;;;;;;;12.43;5.30;;;;;;;5.67;65.70;95702.75;4862247;29;20101;-47
2021/11/27 13:06:51;;;;;;;14.68;5.53;;;;;;;5.62;65.68;95696.31;4851689;29;20037;-47
2021/11/27 13:09:18;;;;;;;13.73;5.40;;;;;;;5.59;66.47;95691.38;4844137;29;20083;-47
2021/11/27 13:11:48;;;;;;;13.70;5.82;;;;;;;5.77;65.83;95697.56;4844853;29;20143;-47
2021/11/27 13:14:30;;;;;;;15.65;6.22;;;;;;;5.76;64.94;95695.09;4842436;29;20136;-49
2021/11/27 13:17:24;;;;;;;12.55;5.00;;;;;;;5.71;65.88;95701.53;4849959;29;20051;-46
2021/11/27 13:19:49;;;;;;;14.77;5.55;;;;;;;5.58;65.26;95694.97;4857557;29;20041;-48
2021/11/27 13:22:15;;;;;;;14.38;6.45;;;;;;;5.77;65.47;95700.16;4843706;29;20026;-46
2021/11/27 13:25:01;;;;;;;13.80;5.45;;;;;;;5.77;65.52;95705.34;4843313;29;20029;-46
2021/11/27 13:27:31;;;;;;;13.85;5.70;;;;;;;5.55;65.43;95706.44;4848488;29;20037;-46
2021/11/27 13:30:07;;;;;;;14.10;6.28;;;;;;;5.53;65.34;95708.34;4860564;29;20097;-46
2021/11/27 13:32:40;;;;;;;13.85;5.90;;;;;;;5.71;65.34;95716.28;4855346;29;20033;-46
2021/11/27 13:35:06;;;;;;;13.27;5.40;;;;;;;5.54;65.67;95714.34;4843315;29;20078;-46
2021/11/27 13:37:47;;;;;;;14.55;5.80;;;;;;;5.48;65.33;95723.53;4844048;29;20034;-46
2021/11/27 13:40:23;;;;;;;13.27;5.88;;;;;;;5.39;66.42;95721.72;4861838;29;20124;-46
2021/11/27 13:42:50;;;;;;;13.52;5.75;;;;;;;5.30;66.79;95725.13;4860485;29;20107;-47
2021/11/27 13:45:16;;;;;;;15.20;6.65;;;;;;;5.12;66.69;95719.75;4860503;29;20034;-49
2021/11/27 13:47:41;;;;;;;15.20;6.07;;;;;;;5.22;67.02;95718.00;4860596;29;20478;-47
2021/11/27 13:50:11;;;;;;;15.65;6.95;;;;;;;5.11;67.81;95715.50;4846123;29;20038;-47
2021/11/27 13:52:39;;;;;;;14.43;6.32;;;;;;;4.90;68.32;95721.59;4844014;29;20458;-51
2021/11/27 13:55:16;;;;;;;15.10;6.32;;;;;;;5.00;68.32;95726.81;4843126;29;20075;-48
2021/11/27 13:57:56;;;;;;;16.85;7.07;;;;;;;5.00;68.53;95734.63;4843201;29;20116;-47
2021/11/27 14:00:27;;;;;;;16.23;6.47;;;;;;;5.05;68.43;95729.84;4855120;29;20112;-48
2021/11/27 14:03:07;;;;;;;16.05;6.65;;;;;;;4.92;68.37;95735.28;4859668;29;20070;-49
2021/11/27 14:05:36;;;;;;;17.45;7.43;;;;;;;4.92;68.71;95740.47;4860899;29;20034;-49
2021/11/27 14:08:12;;;;;;;16.10;6.60;;;;;;;4.95;68.84;95731.56;4842920;29;20607;-47
2021/11/27 14:10:39;;;;;;;16.27;7.10;;;;;;;4.94;68.72;95755.91;4866745;29;20030;-48
2021/11/27 14:13:06;;;;;;;16.92;6.97;;;;;;;4.76;69.58;95755.69;4855572;29;20022;-49
2021/11/27 14:15:37;;;;;;;16.15;6.28;;;;;;;4.80;69.66;95757.09;4842757;29;20341;-50
2021/11/27 14:18:17;;;;;;;16.40;7.20;;;;;;;4.62;72.57;95758.63;4842971;29;20037;-48
2021/11/27 14:20:47;;;;;;;20.23;8.13;;;;;;;4.58;73.50;95757.25;4847418;29;20052;-50
2021/11/27 14:23:15;;;;;;;18.73;7.70;;;;;;;4.44;73.71;95743.66;4859950;29;20434;-51
2021/11/27 14:25:41;;;;;;;18.88;8.40;;;;;;;4.53;74.87;95755.84;4861041;29;20038;-50
2021/11/27 14:28:11;;;;;;;19.08;8.25;;;;;;;4.64;74.80;95743.72;4860459;29;20363;-50
2021/11/27 14:30:40;;;;;;;19.73;8.52;;;;;;;4.80;74.67;95745.88;4860549;29;20040;-48
2021/11/27 14:33:15;;;;;;;17.95;7.90;;;;;;;4.55;74.39;95773.09;4859734;29;20029;-49
2021/11/27 14:35:40;;;;;;;18.00;8.10;;;;;;;4.29;74.66;95794.19;4861024;29;20029;-49
2021/11/27 14:38:06;;;;;;;18.60;9.32;;;;;;;4.04;75.58;95806.56;4860921;29;20028;-49
2021/11/27 14:40:31;;;;;;;21.80;9.15;;;;;;;3.63;77.15;95796.09;4860133;29;20033;-53
2021/11/27 14:43:04;;;;;;;26.13;9.85;;;;;;;3.81;77.57;95802.41;4846818;29;20036;-50
2021/11/27 14:45:48;;;;;;;19.40;8.40;;;;;;;3.75;77.14;95795.94;4842136;29;20067;-49
2021/11/27 14:48:35;;;;;;;21.63;9.25;;;;;;;3.81;76.61;95792.03;4842868;29;20025;-49
2021/11/27 14:51:02;;;;;;;20.90;9.13;;;;;;;3.69;77.03;95795.59;4843112;29;20029;-49
2021/11/27 14:53:39;;;;;;;26.08;11.13;;;;;;;3.57;77.68;95793.00;4846256;29;20041;-49
2021/11/27 14:56:05;;;;;;;22.23;10.70;;;;;;;3.62;77.17;95791.84;4842666;29;20113;-51
2021/11/27 14:58:31;;;;;;;20.05;9.65;;;;;;;3.52;76.96;95789.97;4841487;29;20030;-51
2021/11/27 15:01:04;;;;;;;25.38;12.95;;;;;;;3.46;77.65;95805.19;4855655;29;20553;-52
2021/11/27 15:03:33;;;;;;;36.00;17.98;;;;;;;3.46;78.05;95815.56;4857597;29;20046;-50
2021/11/27 15:05:59;;;;;;;23.65;10.98;;;;;;;3.41;78.38;95821.09;4859311;29;20077;-51
2021/11/27 15:08:25;;;;;;;19.38;8.95;;;;;;;3.52;77.74;95831.44;4874722;29;20100;-50
2021/11/27 15:10:53;;;;;;;20.00;8.95;;;;;;;3.87;77.24;95819.25;4847392;29;20038;-53
2021/11/27 15:13:19;;;;;;;20.60;9.10;;;;;;;3.72;76.68;95800.56;4842631;29;20021;-49
2021/11/27 15:15:44;;;;;;;19.08;9.45;;;;;;;3.55;78.87;95794.09;4841649;29;20556;-52
2021/11/27 15:18:12;;;;;;;22.67;10.00;;;;;;;3.67;78.00;95803.50;4841496;29;20029;-52
2021/11/27 15:20:39;;;;;;;22.52;9.98;;;;;;;3.64;77.22;95800.31;4862402;29;20095;-50
2021/11/27 15:23:04;;;;;;;25.13;11.93;;;;;;;3.40;77.73;95801.28;4858393;29;20061;-50
2021/11/27 15:25:30;;;;;;;24.88;12.48;;;;;;;3.40;77.69;95806.47;4859908;29;20040;-53
2021/11/27 15:27:55;;;;;;;28.15;12.55;;;;;;;3.20;78.95;95817.56;4859981;29;20029;-49
2021/11/27 15:30:21;;;;;;;23.83;10.98;;;;;;;3.28;78.50;95810.03;4860270;29;20034;-52
2021/11/27 15:32:46;;;;;;;31.58;14.05;;;;;;;2.95;79.37;95816.03;4844220;29;20036;-48
2021/11/27 15:35:11;;;;;;;24.15;12.50;;;;;;;2.89;80.07;95827.69;4842401;29;20442;-47
2021/11/27 15:37:38;;;;;;;144.45;40.53;;;;;;;2.97;79.58;95827.94;4857562;29;20030;-48
2021/11/27 15:40:04;;;;;;;163.73;53.85;;;;;;;2.97;79.75;95827.94;4846289;29;20033;-49
2021/11/27 15:42:29;;;;;;;71.13;29.73;;;;;;;2.95;80.58;95842.75;4856852;29;20120;-52
2021/11/27 15:44:55;;;;;;;56.38;23.45;;;;;;;2.67;82.26;95853.53;4862976;29;20026;-53
2021/11/27 15:47:22;;;;;;;116.10;37.60;;;;;;;2.78;81.48;95859.53;4862216;29;20409;-49
2021/11/27 15:49:48;;;;;;;54.92;19.27;;;;;;;2.64;82.39;95874.44;4861973;29;20026;-52
2021/11/27 15:52:13;;;;;;;57.70;21.08;;;;;;;2.50;83.54;95873.69;4856815;29;20108;-51
2021/11/27 15:54:38;;;;;;;84.45;31.23;;;;;;;2.48;84.04;95885.09;4842126;29;20021;-47
2021/11/27 15:57:04;;;;;;;39.35;18.55;;;;;;;2.47;83.84;95878.28;4841724;29;20029;-48
2021/11/27 15:59:29;;;;;;;59.45;21.20;;;;;;;2.54;82.71;95869.94;4858126;29;20116;-49
2021/11/27 16:01:55;;;;;;;91.55;26.77;;;;;;;2.60;82.82;95874.69;4858856;29;20041;-49
2021/11/27 16:04:21;;;;;;;61.70;23.25;;;;;;;2.49;83.74;95892.75;4859006;29;20025;-50
2021/11/27 16:06:47;;;;;;;31.40;14.70;;;;;;;2.35;83.10;95893.75;4860683;29;20409;-48
2021/11/27 16:09:13;;;;;;;56.55;21.00;;;;;;;2.21;83.71;95895.72;4860313;29;20025;-51
2021/11/27 16:11:38;;;;;;;45.67;17.77;;;;;;;2.18;84.49;95898.50;4858869;29;20057;-51
2021/11/27 16:14:03;;;;;;;31.17;13.32;;;;;;;2.08;84.52;95914.66;4859778;29;20032;-51
2021/11/27 16:16:29;;;;;;;35.15;15.63;;;;;;;2.07;85.24;95907.84;4860315;29;20021;-48
2021/11/27 16:18:56;;;;;;;36.97;14.63;;;;;;;2.02;85.19;95894.41;4859568;29;20032;-49
2021/11/27 16:21:21;;;;;;;25.48;12.43;;;;;;;2.41;83.86;95894.25;4860140;29;20032;-48
2021/11/27 16:23:46;;;;;;;31.48;14.38;;;;;;;2.61;83.01;95891.03;4858087;29;20034;-47
2021/11/27 16:26:12;;;;;;;33.55;14.73;;;;;;;2.68;82.76;95894.00;4859238;29;20048;-49
2021/11/27 16:28:37;;;;;;;36.15;16.13;;;;;;;2.80;82.57;95896.50;4859797;29;20034;-50
2021/11/27 16:31:03;;;;;;;32.95;14.48;;;;;;;2.55;83.98;95897.50;4858347;29;20037;-48
2021/11/27 16:33:28;;;;;;;33.70;14.15;;;;;;;2.67;83.80;95905.28;4861286;29;20477;-48
2021/11/27 16:35:53;;;;;;;39.72;20.40;;;;;;;2.50;83.43;95902.16;4863700;29;20036;-48
2021/11/27 16:38:19;;;;;;;51.33;27.52;;;;;;;2.63;83.27;95909.03;4863842;29;20025;-47
2021/11/27 16:40:44;;;;;;;41.22;22.85;;;;;;;2.88;81.62;95911.47;4863702;29;20029;-51
2021/11/27 16:43:10;;;;;;;30.67;13.63;;;;;;;2.76;81.83;95920.16;4860119;29;20094;-48
2021/11/27 16:45:36;;;;;;;23.02;9.10;;;;;;;2.73;82.75;95935.91;4845353;29;20044;-50
2021/11/27 16:48:01;;;;;;;42.70;23.55;;;;;;;2.72;82.15;95926.47;4871189;29;20033;-52
2021/11/27 16:50:27;;;;;;;37.08;19.70;;;;;;;2.59;82.63;95932.56;4864264;29;20034;-52
2021/11/27 16:52:52;;;;;;;25.98;11.15;;;;;;;2.51;82.13;95927.13;4861276;29;20029;-54
2021/11/27 16:55:18;;;;;;;22.55;10.05;;;;;;;2.45;82.72;95931.91;4878106;29;20037;-51
2021/11/27 16:57:47;;;;;;;28.90;11.13;;;;;;;2.32;83.16;95937.97;4863390;29;20508;-51
2021/11/27 17:00:14;;;;;;;21.77;9.48;;;;;;;2.11;84.25;95940.31;4861904;29;20022;-51
2021/11/27 17:02:40;;;;;;;22.70;10.77;;;;;;;1.95;84.71;95944.91;4861494;29;20554;-51
2021/11/27 17:05:06;;;;;;;22.45;10.48;;;;;;;1.93;85.07;95949.38;4862904;29;20043;-48
2021/11/27 17:07:31;;;;;;;25.65;9.93;;;;;;;1.93;84.91;95951.97;4863242;29;20036;-49
2021/11/27 17:09:57;;;;;;;27.88;13.95;;;;;;;1.91;84.99;95966.75;4868767;29;20033;-49
2021/11/27 17:12:22;;;;;;;27.38;15.95;;;;;;;1.83;84.84;95961.28;4874340;29;20062;-48
2021/11/27 17:14:48;;;;;;;42.55;18.98;;;;;;;1.74;84.95;95959.34;4849950;29;20486;-52
2021/11/27 17:17:13;;;;;;;30.40;16.13;;;;;;;1.75;85.08;95955.81;4844686;29;20060;-48
2021/11/27 17:19:38;;;;;;;19.67;9.50;;;;;;;1.93;83.66;95941.63;4844575;29;20094;-51
2021/11/27 17:22:04;;;;;;;24.10;11.27;;;;;;;1.83;84.93;95956.94;4845299;29;20058;-50
2021/11/27 17:24:29;;;;;;;289.50;56.78;;;;;;;1.89;83.78;95966.00;4853899;29;20035;-48
2021/11/27 17:26:55;;;;;;;511.88;83.80;;;;;;;1.77;83.84;95977.22;4881319;29;20029;-48
2021/11/27 17:29:20;;;;;;;456.80;65.03;;;;;;;1.65;84.66;95984.03;4872171;29;20512;-48
2021/11/27 17:31:46;;;;;;;103.63;26.17;;;;;;;1.70;83.90;95994.06;4862805;29;20025;-49
2021/11/27 17:34:11;;;;;;;60.50;31.80;;;;;;;1.65;84.07;96000.38;4846956;29;20153;-48
2021/11/27 17:36:37;;;;;;;34.58;19.63;;;;;;;1.62;83.83;96025.63;4843871;29;20033;-48
2021/11/27 17:39:02;;;;;;;20.88;9.15;;;;;;;1.64;83.69;96034.06;4870456;29;20044;-48
2021/11/27 17:41:27;;;;;;;16.25;7.70;;;;;;;1.47;84.16;96024.03;4871020;29;20032;-47
2021/11/27 17:43:53;;;;;;;18.88;8.25;;;;;;;1.45;84.18;96011.25;4861545;29;20473;-48
2021/11/27 17:46:18;;;;;;;19.27;8.82;;;;;;;1.49;84.10;96035.09;4862081;29;20037;-49
2021/11/27 17:48:44;;;;;;;19.55;7.65;;;;;;;1.48;84.15;96036.03;4862322;29;20182;-47
2021/11/27 17:51:10;;;;;;;16.52;8.25;;;;;;;1.42;84.15;96042.44;4864694;29;20041;-48
2021/11/27 17:53:35;;;;;;;19.02;8.27;;;;;;;1.57;83.17;96031.06;4844168;29;20040;-48
2021/11/27 17:56:00;;;;;;;17.15;7.55;;;;;;;1.56;83.64;96026.84;4844359;29;20033;-48
2021/11/27 17:58:26;;;;;;;19.05;9.07;;;;;;;1.60;83.53;96038.63;4843684;29;20033;-47
2021/11/27 18:00:51;;;;;;;18.50;8.02;;;;;;;1.60;82.89;96043.78;4842947;29;20034;-48
2021/11/27 18:03:17;;;;;;;21.52;8.30;;;;;;;1.74;82.22;96045.44;4844366;29;20121;-51
2021/11/27 18:05:42;;;;;;;19.90;8.35;;;;;;;1.78;81.84;96038.31;4865401;29;20037;-50
2021/11/27 18:08:08;;;;;;;19.77;8.80;;;;;;;1.89;81.68;96038.38;4880808;29;20076;-48
2021/11/27 18:10:33;;;;;;;29.40;11.45;;;;;;;1.66;81.92;96042.56;4870830;29;20048;-48
2021/11/27 18:12:59;;;;;;;28.80;13.60;;;;;;;1.61;82.82;96045.44;4858134;29;20074;-48
2021/11/27 18:15:24;;;;;;;33.55;14.00;;;;;;;1.66;81.92;96033.03;4843089;29;20036;-48
2021/11/27 18:17:56;;;;;;;34.55;15.10;;;;;;;1.86;81.16;96033.47;4843854;29;20029;-48
2021/11/27 18:20:21;;;;;;;28.33;11.90;;;;;;;1.75;81.40;96035.94;4843509;29;20084;-49
2021/11/27 18:22:48;;;;;;;92.00;27.63;;;;;;;1.66;81.63;96045.97;4843684;29;20033;-50
2021/11/27 18:25:16;;;;;;;329.30;65.63;;;;;;;1.25;83.65;96063.38;4853997;29;20040;-51
2021/11/27 18:27:41;;;;;;;117.05;34.55;;;;;;;1.25;83.21;96063.38;4861665;29;20502;-50
2021/11/27 18:30:08;;;;;;;71.68;22.17;;;;;;;1.23;83.58;96070.41;4861326;29;20132;-50
2021/11/27 18:32:34;;;;;;;91.97;30.35;;;;;;;1.18;83.28;96070.72;4860862;29;20056;-50
2021/11/27 18:34:59;;;;;;;45.30;18.52;;;;;;;1.17;83.35;96081.94;4858500;29;20034;-47
2021/11/27 18:37:25;;;;;;;33.13;13.88;;;;;;;1.11;83.61;96083.19;4861629;29;20033;-47